sensor_id;sensor_type;location;lat;lon;timestamp;P1;durP1;ratioP1;P2;durP2;ratioP2
55489;SDS011;44029;52.956;4.772;2022-11-30T00:01:07;21.35;;;11.45;;
55489;SDS011;44029;52.956;4.772;2022-11-30T00:03:34;22.13;;;11.25;;
55489;SDS011;44029;52.956;4.772;2022-11-30T00:06:03;18.50;;;11.07;;
55489;SDS011;44029;52.956;4.772;2022-11-30T00:08:33;16.25;;;10.32;;
55489;SDS011;44029;52.956;4.772;2022-11-30T00:10:58;17.65;;;10.85;;
55489;SDS011;44029;52.956;4.772;2022-11-30T00:13:24;20.58;;;10.93;;
55489;SDS011;44029;52.956;4.772;2022-11-30T00:15:49;21.60;;;11.15;;
55489;SDS011;44029;52.956;4.772;2022-11-30T00:18:14;20.35;;;11.52;;
55489;SDS011;44029;52.956;4.772;2022-11-30T00:20:41;20.63;;;12.00;;
55489;SDS011;44029;52.956;4.772;2022-11-30T00:23:07;18.17;;;11.25;;
55489;SDS011;44029;52.956;4.772;2022-11-30T00:25:34;20.65;;;11.07;;
55489;SDS011;44029;52.956;4.772;2022-11-30T00:28:00;21.73;;;11.48;;
55489;SDS011;44029;52.956;4.772;2022-11-30T00:30:26;19.13;;;11.65;;
55489;SDS011;44029;52.956;4.772;2022-11-30T00:32:54;22.17;;;11.35;;
55489;SDS011;44029;52.956;4.772;2022-11-30T00:35:20;19.50;;;11.35;;
55489;SDS011;44029;52.956;4.772;2022-11-30T00:37:46;19.33;;;12.02;;
55489;SDS011;44029;52.956;4.772;2022-11-30T00:40:11;23.20;;;11.88;;
55489;SDS011;44029;52.956;4.772;2022-11-30T00:42:37;20.63;;;12.20;;
55489;SDS011;44029;52.956;4.772;2022-11-30T00:45:02;19.15;;;11.55;;
55489;SDS011;44029;52.956;4.772;2022-11-30T00:47:28;25.80;;;12.20;;
55489;SDS011;44029;52.956;4.772;2022-11-30T00:49:53;24.25;;;13.00;;
55489;SDS011;44029;52.956;4.772;2022-11-30T00:52:19;22.55;;;12.45;;
55489;SDS011;44029;52.956;4.772;2022-11-30T00:54:44;25.25;;;13.45;;
55489;SDS011;44029;52.956;4.772;2022-11-30T00:57:09;24.00;;;13.25;;
55489;SDS011;44029;52.956;4.772;2022-11-30T00:59:35;23.88;;;13.65;;
55489;SDS011;44029;52.956;4.772;2022-11-30T01:02:00;22.52;;;12.27;;
55489;SDS011;44029;52.956;4.772;2022-11-30T01:04:26;21.65;;;12.30;;
55489;SDS011;44029;52.956;4.772;2022-11-30T01:06:51;23.10;;;12.15;;
55489;SDS011;44029;52.956;4.772;2022-11-30T01:09:16;22.52;;;12.18;;
55489;SDS011;44029;52.956;4.772;2022-11-30T01:11:42;23.77;;;11.95;;
55489;SDS011;44029;52.956;4.772;2022-11-30T01:14:07;21.77;;;11.93;;
55489;SDS011;44029;52.956;4.772;2022-11-30T01:16:32;22.95;;;12.73;;
55489;SDS011;44029;52.956;4.772;2022-11-30T01:18:58;22.13;;;12.25;;
55489;SDS011;44029;52.956;4.772;2022-11-30T01:21:25;19.00;;;11.32;;
55489;SDS011;44029;52.956;4.772;2022-11-30T01:23:52;20.48;;;12.00;;
55489;SDS011;44029;52.956;4.772;2022-11-30T01:26:17;20.33;;;11.88;;
55489;SDS011;44029;52.956;4.772;2022-11-30T01:28:43;20.55;;;11.60;;
55489;SDS011;44029;52.956;4.772;2022-11-30T01:31:09;22.98;;;11.23;;
55489;SDS011;44029;52.956;4.772;2022-11-30T01:33:37;21.92;;;11.88;;
55489;SDS011;44029;52.956;4.772;2022-11-30T01:36:03;22.15;;;11.20;;
55489;SDS011;44029;52.956;4.772;2022-11-30T01:38:41;19.13;;;11.07;;
55489;SDS011;44029;52.956;4.772;2022-11-30T01:41:08;20.13;;;11.95;;
55489;SDS011;44029;52.956;4.772;2022-11-30T01:48:53;19.77;;;11.38;;
55489;SDS011;44029;52.956;4.772;2022-11-30T01:51:20;20.98;;;12.00;;
55489;SDS011;44029;52.956;4.772;2022-11-30T01:53:46;18.83;;;10.90;;
55489;SDS011;44029;52.956;4.772;2022-11-30T01:56:12;21.92;;;12.07;;
55489;SDS011;44029;52.956;4.772;2022-11-30T01:58:37;20.23;;;12.43;;
55489;SDS011;44029;52.956;4.772;2022-11-30T02:01:03;23.00;;;11.90;;
55489;SDS011;44029;52.956;4.772;2022-11-30T02:03:31;20.95;;;11.23;;
55489;SDS011;44029;52.956;4.772;2022-11-30T02:06:02;21.48;;;13.00;;
55489;SDS011;44029;52.956;4.772;2022-11-30T02:08:27;22.05;;;11.70;;
55489;SDS011;44029;52.956;4.772;2022-11-30T02:10:57;19.38;;;11.02;;
55489;SDS011;44029;52.956;4.772;2022-11-30T02:24:38;21.33;;;11.90;;
55489;SDS011;44029;52.956;4.772;2022-11-30T02:27:28;18.58;;;11.27;;
55489;SDS011;44029;52.956;4.772;2022-11-30T02:30:08;18.38;;;10.73;;
55489;SDS011;44029;52.956;4.772;2022-11-30T02:35:20;18.67;;;10.38;;
55489;SDS011;44029;52.956;4.772;2022-11-30T02:37:50;15.75;;;9.98;;
55489;SDS011;44029;52.956;4.772;2022-11-30T02:40:18;19.80;;;10.95;;
55489;SDS011;44029;52.956;4.772;2022-11-30T02:42:45;19.00;;;10.77;;
55489;SDS011;44029;52.956;4.772;2022-11-30T02:45:13;15.70;;;10.20;;
55489;SDS011;44029;52.956;4.772;2022-11-30T02:47:41;19.20;;;10.38;;
55489;SDS011;44029;52.956;4.772;2022-11-30T02:50:14;17.88;;;11.25;;
55489;SDS011;44029;52.956;4.772;2022-11-30T02:52:52;17.98;;;10.98;;
55489;SDS011;44029;52.956;4.772;2022-11-30T02:55:18;18.60;;;11.07;;
55489;SDS011;44029;52.956;4.772;2022-11-30T02:57:44;20.63;;;11.13;;
55489;SDS011;44029;52.956;4.772;2022-11-30T03:00:10;18.55;;;10.82;;
55489;SDS011;44029;52.956;4.772;2022-11-30T03:02:37;18.13;;;11.05;;
55489;SDS011;44029;52.956;4.772;2022-11-30T03:05:03;23.30;;;12.27;;
55489;SDS011;44029;52.956;4.772;2022-11-30T03:07:29;22.80;;;12.15;;
55489;SDS011;44029;52.956;4.772;2022-11-30T03:09:54;20.50;;;11.52;;
55489;SDS011;44029;52.956;4.772;2022-11-30T03:12:20;17.42;;;11.32;;
55489;SDS011;44029;52.956;4.772;2022-11-30T03:14:46;21.13;;;11.65;;
55489;SDS011;44029;52.956;4.772;2022-11-30T03:17:11;21.75;;;11.68;;
55489;SDS011;44029;52.956;4.772;2022-11-30T03:19:36;22.08;;;12.40;;
55489;SDS011;44029;52.956;4.772;2022-11-30T03:22:02;21.35;;;12.77;;
55489;SDS011;44029;52.956;4.772;2022-11-30T03:24:27;18.58;;;11.32;;
55489;SDS011;44029;52.956;4.772;2022-11-30T03:26:53;20.52;;;11.90;;
55489;SDS011;44029;52.956;4.772;2022-11-30T03:29:19;22.80;;;12.10;;
55489;SDS011;44029;52.956;4.772;2022-11-30T03:31:44;19.45;;;11.90;;
55489;SDS011;44029;52.956;4.772;2022-11-30T03:34:09;21.38;;;12.70;;
55489;SDS011;44029;52.956;4.772;2022-11-30T03:36:34;21.60;;;11.80;;
55489;SDS011;44029;52.956;4.772;2022-11-30T03:39:00;21.88;;;12.02;;
55489;SDS011;44029;52.956;4.772;2022-11-30T03:41:25;22.13;;;12.50;;
55489;SDS011;44029;52.956;4.772;2022-11-30T03:43:52;23.05;;;13.23;;
55489;SDS011;44029;52.956;4.772;2022-11-30T03:46:17;24.48;;;12.98;;
55489;SDS011;44029;52.956;4.772;2022-11-30T03:48:43;22.10;;;12.25;;
55489;SDS011;44029;52.956;4.772;2022-11-30T03:51:09;21.33;;;12.50;;
55489;SDS011;44029;52.956;4.772;2022-11-30T03:53:35;23.90;;;13.13;;
55489;SDS011;44029;52.956;4.772;2022-11-30T03:56:02;27.55;;;12.63;;
55489;SDS011;44029;52.956;4.772;2022-11-30T03:58:30;23.38;;;12.85;;
55489;SDS011;44029;52.956;4.772;2022-11-30T04:03:35;21.10;;;11.27;;
55489;SDS011;44029;52.956;4.772;2022-11-30T04:06:01;20.30;;;11.13;;
55489;SDS011;44029;52.956;4.772;2022-11-30T04:08:27;21.77;;;11.40;;
55489;SDS011;44029;52.956;4.772;2022-11-30T04:10:54;19.55;;;11.38;;
55489;SDS011;44029;52.956;4.772;2022-11-30T04:13:21;21.15;;;11.70;;
55489;SDS011;44029;52.956;4.772;2022-11-30T04:15:48;22.63;;;11.23;;
55489;SDS011;44029;52.956;4.772;2022-11-30T04:18:15;20.15;;;10.68;;
55489;SDS011;44029;52.956;4.772;2022-11-30T04:20:41;21.20;;;11.68;;
55489;SDS011;44029;52.956;4.772;2022-11-30T04:23:07;18.33;;;11.02;;
55489;SDS011;44029;52.956;4.772;2022-11-30T04:25:36;19.02;;;11.23;;
55489;SDS011;44029;52.956;4.772;2022-11-30T04:28:02;18.50;;;11.18;;
55489;SDS011;44029;52.956;4.772;2022-11-30T04:30:27;19.45;;;11.32;;
55489;SDS011;44029;52.956;4.772;2022-11-30T04:32:52;25.13;;;12.27;;
55489;SDS011;44029;52.956;4.772;2022-11-30T04:35:18;21.08;;;10.55;;
55489;SDS011;44029;52.956;4.772;2022-11-30T04:37:43;22.98;;;11.88;;
55489;SDS011;44029;52.956;4.772;2022-11-30T04:40:08;22.67;;;12.23;;
55489;SDS011;44029;52.956;4.772;2022-11-30T04:42:34;22.60;;;11.93;;
55489;SDS011;44029;52.956;4.772;2022-11-30T04:44:59;23.85;;;12.82;;
55489;SDS011;44029;52.956;4.772;2022-11-30T04:47:25;23.40;;;12.38;;
55489;SDS011;44029;52.956;4.772;2022-11-30T04:49:50;23.98;;;13.18;;
55489;SDS011;44029;52.956;4.772;2022-11-30T04:52:15;21.25;;;12.02;;
55489;SDS011;44029;52.956;4.772;2022-11-30T04:54:41;24.92;;;13.45;;
55489;SDS011;44029;52.956;4.772;2022-11-30T04:57:06;24.17;;;12.68;;
55489;SDS011;44029;52.956;4.772;2022-11-30T04:59:31;28.08;;;13.70;;
55489;SDS011;44029;52.956;4.772;2022-11-30T05:01:57;24.25;;;13.45;;
55489;SDS011;44029;52.956;4.772;2022-11-30T05:04:22;26.38;;;13.50;;
55489;SDS011;44029;52.956;4.772;2022-11-30T05:06:48;25.38;;;12.73;;
55489;SDS011;44029;52.956;4.772;2022-11-30T05:09:13;26.00;;;13.73;;
55489;SDS011;44029;52.956;4.772;2022-11-30T05:11:38;25.85;;;13.35;;
55489;SDS011;44029;52.956;4.772;2022-11-30T05:14:04;23.02;;;13.52;;
55489;SDS011;44029;52.956;4.772;2022-11-30T05:16:29;26.20;;;12.75;;
55489;SDS011;44029;52.956;4.772;2022-11-30T05:18:55;27.20;;;13.13;;
55489;SDS011;44029;52.956;4.772;2022-11-30T05:21:20;24.80;;;13.40;;
55489;SDS011;44029;52.956;4.772;2022-11-30T05:23:45;27.15;;;13.40;;
55489;SDS011;44029;52.956;4.772;2022-11-30T05:26:12;27.27;;;13.50;;
55489;SDS011;44029;52.956;4.772;2022-11-30T05:28:38;21.70;;;13.63;;
55489;SDS011;44029;52.956;4.772;2022-11-30T05:31:04;25.30;;;12.68;;
55489;SDS011;44029;52.956;4.772;2022-11-30T05:33:30;22.27;;;13.20;;
55489;SDS011;44029;52.956;4.772;2022-11-30T05:35:55;23.13;;;13.43;;
55489;SDS011;44029;52.956;4.772;2022-11-30T05:38:21;23.02;;;13.35;;
55489;SDS011;44029;52.956;4.772;2022-11-30T05:40:46;23.73;;;13.15;;
55489;SDS011;44029;52.956;4.772;2022-11-30T05:43:11;21.60;;;12.85;;
55489;SDS011;44029;52.956;4.772;2022-11-30T05:45:37;25.27;;;13.63;;
55489;SDS011;44029;52.956;4.772;2022-11-30T05:48:02;25.85;;;13.27;;
55489;SDS011;44029;52.956;4.772;2022-11-30T05:50:28;24.02;;;13.65;;
55489;SDS011;44029;52.956;4.772;2022-11-30T05:52:53;23.83;;;13.40;;
55489;SDS011;44029;52.956;4.772;2022-11-30T05:55:20;27.38;;;14.45;;
55489;SDS011;44029;52.956;4.772;2022-11-30T05:57:46;26.35;;;13.45;;
55489;SDS011;44029;52.956;4.772;2022-11-30T06:00:12;28.00;;;13.88;;
55489;SDS011;44029;52.956;4.772;2022-11-30T06:02:37;31.73;;;14.93;;
55489;SDS011;44029;52.956;4.772;2022-11-30T06:05:03;28.88;;;13.90;;
55489;SDS011;44029;52.956;4.772;2022-11-30T06:07:29;26.67;;;13.30;;
55489;SDS011;44029;52.956;4.772;2022-11-30T06:09:54;26.20;;;14.95;;
55489;SDS011;44029;52.956;4.772;2022-11-30T06:12:19;27.23;;;14.38;;
55489;SDS011;44029;52.956;4.772;2022-11-30T06:14:45;27.75;;;14.50;;
55489;SDS011;44029;52.956;4.772;2022-11-30T06:17:10;28.88;;;15.45;;
55489;SDS011;44029;52.956;4.772;2022-11-30T06:19:35;30.05;;;15.48;;
55489;SDS011;44029;52.956;4.772;2022-11-30T06:22:00;29.70;;;15.45;;
55489;SDS011;44029;52.956;4.772;2022-11-30T06:24:26;30.98;;;16.42;;
55489;SDS011;44029;52.956;4.772;2022-11-30T06:26:51;28.63;;;15.75;;
55489;SDS011;44029;52.956;4.772;2022-11-30T06:29:16;29.48;;;15.52;;
55489;SDS011;44029;52.956;4.772;2022-11-30T06:31:42;27.90;;;15.40;;
55489;SDS011;44029;52.956;4.772;2022-11-30T06:34:07;28.27;;;15.23;;
55489;SDS011;44029;52.956;4.772;2022-11-30T06:36:32;31.17;;;17.23;;
55489;SDS011;44029;52.956;4.772;2022-11-30T06:38:58;30.83;;;17.15;;
55489;SDS011;44029;52.956;4.772;2022-11-30T06:41:23;28.63;;;15.30;;
55489;SDS011;44029;52.956;4.772;2022-11-30T06:43:49;28.88;;;15.88;;
55489;SDS011;44029;52.956;4.772;2022-11-30T06:46:14;24.17;;;13.95;;
55489;SDS011;44029;52.956;4.772;2022-11-30T06:48:40;26.55;;;14.45;;
55489;SDS011;44029;52.956;4.772;2022-11-30T06:51:07;29.80;;;14.65;;
55489;SDS011;44029;52.956;4.772;2022-11-30T06:53:33;26.73;;;15.00;;
55489;SDS011;44029;52.956;4.772;2022-11-30T06:56:02;29.48;;;15.35;;
55489;SDS011;44029;52.956;4.772;2022-11-30T06:58:28;27.58;;;16.10;;
55489;SDS011;44029;52.956;4.772;2022-11-30T07:00:54;30.30;;;15.50;;
55489;SDS011;44029;52.956;4.772;2022-11-30T07:03:19;30.17;;;15.98;;
55489;SDS011;44029;52.956;4.772;2022-11-30T07:05:45;29.17;;;15.90;;
55489;SDS011;44029;52.956;4.772;2022-11-30T07:08:11;30.85;;;15.70;;
55489;SDS011;44029;52.956;4.772;2022-11-30T07:10:41;26.83;;;15.10;;
55489;SDS011;44029;52.956;4.772;2022-11-30T07:13:15;34.83;;;15.13;;
55489;SDS011;44029;52.956;4.772;2022-11-30T07:15:42;28.65;;;15.98;;
55489;SDS011;44029;52.956;4.772;2022-11-30T07:18:08;28.80;;;15.63;;
55489;SDS011;44029;52.956;4.772;2022-11-30T07:20:34;32.67;;;16.75;;
55489;SDS011;44029;52.956;4.772;2022-11-30T07:23:00;34.15;;;15.70;;
55489;SDS011;44029;52.956;4.772;2022-11-30T07:25:46;31.92;;;16.55;;
55489;SDS011;44029;52.956;4.772;2022-11-30T07:28:33;32.45;;;15.75;;
55489;SDS011;44029;52.956;4.772;2022-11-30T07:31:14;41.88;;;16.17;;
55489;SDS011;44029;52.956;4.772;2022-11-30T07:33:44;36.53;;;17.30;;
55489;SDS011;44029;52.956;4.772;2022-11-30T07:36:10;32.88;;;16.52;;
55489;SDS011;44029;52.956;4.772;2022-11-30T07:38:36;34.17;;;16.73;;
55489;SDS011;44029;52.956;4.772;2022-11-30T07:41:02;36.38;;;17.85;;
55489;SDS011;44029;52.956;4.772;2022-11-30T07:43:28;34.42;;;16.23;;
55489;SDS011;44029;52.956;4.772;2022-11-30T07:45:53;40.50;;;21.27;;
55489;SDS011;44029;52.956;4.772;2022-11-30T07:48:19;31.10;;;16.52;;
55489;SDS011;44029;52.956;4.772;2022-11-30T07:50:45;31.05;;;15.57;;
55489;SDS011;44029;52.956;4.772;2022-11-30T07:53:12;33.88;;;15.70;;
55489;SDS011;44029;52.956;4.772;2022-11-30T07:55:37;29.63;;;17.00;;
55489;SDS011;44029;52.956;4.772;2022-11-30T07:58:02;29.60;;;15.23;;
55489;SDS011;44029;52.956;4.772;2022-11-30T08:00:28;28.70;;;15.07;;
55489;SDS011;44029;52.956;4.772;2022-11-30T08:02:53;29.08;;;15.60;;
55489;SDS011;44029;52.956;4.772;2022-11-30T08:05:19;30.85;;;14.98;;
55489;SDS011;44029;52.956;4.772;2022-11-30T08:07:44;30.10;;;15.23;;
55489;SDS011;44029;52.956;4.772;2022-11-30T08:10:14;30.17;;;14.57;;
55489;SDS011;44029;52.956;4.772;2022-11-30T08:12:39;27.77;;;15.82;;
55489;SDS011;44029;52.956;4.772;2022-11-30T08:15:04;31.38;;;14.43;;
55489;SDS011;44029;52.956;4.772;2022-11-30T08:17:31;28.77;;;14.68;;
55489;SDS011;44029;52.956;4.772;2022-11-30T08:19:56;31.77;;;16.60;;
55489;SDS011;44029;52.956;4.772;2022-11-30T08:22:22;33.13;;;16.33;;
55489;SDS011;44029;52.956;4.772;2022-11-30T08:24:47;28.15;;;14.55;;
55489;SDS011;44029;52.956;4.772;2022-11-30T08:27:12;34.35;;;14.77;;
55489;SDS011;44029;52.956;4.772;2022-11-30T08:29:38;29.00;;;15.13;;
55489;SDS011;44029;52.956;4.772;2022-11-30T08:32:03;31.80;;;15.32;;
55489;SDS011;44029;52.956;4.772;2022-11-30T08:34:28;28.80;;;14.90;;
55489;SDS011;44029;52.956;4.772;2022-11-30T08:36:54;41.20;;;15.57;;
55489;SDS011;44029;52.956;4.772;2022-11-30T08:39:19;28.50;;;14.07;;
55489;SDS011;44029;52.956;4.772;2022-11-30T08:41:44;30.92;;;15.32;;
55489;SDS011;44029;52.956;4.772;2022-11-30T08:44:10;30.83;;;14.30;;
55489;SDS011;44029;52.956;4.772;2022-11-30T08:46:35;26.80;;;14.23;;
55489;SDS011;44029;52.956;4.772;2022-11-30T08:49:01;29.67;;;12.80;;
55489;SDS011;44029;52.956;4.772;2022-11-30T08:51:27;24.52;;;13.13;;
55489;SDS011;44029;52.956;4.772;2022-11-30T08:53:52;25.77;;;14.88;;
55489;SDS011;44029;52.956;4.772;2022-11-30T08:56:19;25.52;;;14.45;;
55489;SDS011;44029;52.956;4.772;2022-11-30T08:58:46;26.38;;;14.68;;
55489;SDS011;44029;52.956;4.772;2022-11-30T09:01:16;25.50;;;12.68;;
55489;SDS011;44029;52.956;4.772;2022-11-30T09:03:47;27.90;;;14.23;;
55489;SDS011;44029;52.956;4.772;2022-11-30T09:08:41;26.17;;;14.48;;
55489;SDS011;44029;52.956;4.772;2022-11-30T09:11:11;25.13;;;13.27;;
55489;SDS011;44029;52.956;4.772;2022-11-30T09:13:56;22.42;;;12.73;;
55489;SDS011;44029;52.956;4.772;2022-11-30T09:16:24;25.63;;;14.02;;
55489;SDS011;44029;52.956;4.772;2022-11-30T09:18:50;22.80;;;12.23;;
55489;SDS011;44029;52.956;4.772;2022-11-30T09:21:17;23.17;;;13.00;;
55489;SDS011;44029;52.956;4.772;2022-11-30T09:23:45;28.45;;;12.82;;
55489;SDS011;44029;52.956;4.772;2022-11-30T09:26:11;24.35;;;13.02;;
55489;SDS011;44029;52.956;4.772;2022-11-30T09:28:38;24.27;;;13.55;;
55489;SDS011;44029;52.956;4.772;2022-11-30T09:31:04;19.42;;;11.10;;
55489;SDS011;44029;52.956;4.772;2022-11-30T09:33:31;22.30;;;12.25;;
55489;SDS011;44029;52.956;4.772;2022-11-30T09:35:57;23.92;;;12.38;;
55489;SDS011;44029;52.956;4.772;2022-11-30T09:38:24;20.60;;;11.10;;
55489;SDS011;44029;52.956;4.772;2022-11-30T09:40:56;20.33;;;9.82;;
55489;SDS011;44029;52.956;4.772;2022-11-30T09:46:29;19.55;;;9.57;;
55489;SDS011;44029;52.956;4.772;2022-11-30T09:49:08;19.63;;;10.55;;
55489;SDS011;44029;52.956;4.772;2022-11-30T09:51:49;18.80;;;10.32;;
55489;SDS011;44029;52.956;4.772;2022-11-30T09:54:27;18.20;;;9.57;;
55489;SDS011;44029;52.956;4.772;2022-11-30T09:57:47;17.95;;;9.50;;
55489;SDS011;44029;52.956;4.772;2022-11-30T09:59:59;21.13;;;9.93;;
55489;SDS011;44029;52.956;4.772;2022-11-30T10:02:30;14.73;;;8.02;;
55489;SDS011;44029;52.956;4.772;2022-11-30T10:04:57;16.27;;;9.02;;
55489;SDS011;44029;52.956;4.772;2022-11-30T10:07:58;16.95;;;9.23;;
55489;SDS011;44029;52.956;4.772;2022-11-30T10:30:32;20.77;;;10.38;;
55489;SDS011;44029;52.956;4.772;2022-11-30T10:33:16;18.38;;;10.10;;
55489;SDS011;44029;52.956;4.772;2022-11-30T10:35:50;18.70;;;10.45;;
55489;SDS011;44029;52.956;4.772;2022-11-30T10:38:20;26.88;;;10.82;;
55489;SDS011;44029;52.956;4.772;2022-11-30T10:40:56;26.85;;;10.73;;
55489;SDS011;44029;52.956;4.772;2022-11-30T10:46:06;22.08;;;11.27;;
55489;SDS011;44029;52.956;4.772;2022-11-30T10:48:47;24.20;;;10.80;;
55489;SDS011;44029;52.956;4.772;2022-11-30T10:51:16;24.85;;;11.57;;
55489;SDS011;44029;52.956;4.772;2022-11-30T10:53:42;18.40;;;10.70;;
55489;SDS011;44029;52.956;4.772;2022-11-30T10:56:08;23.90;;;13.27;;
55489;SDS011;44029;52.956;4.772;2022-11-30T11:01:10;21.08;;;10.80;;
55489;SDS011;44029;52.956;4.772;2022-11-30T11:04:16;15.18;;;7.47;;
55489;SDS011;44029;52.956;4.772;2022-11-30T11:11:52;15.00;;;7.57;;
55489;SDS011;44029;52.956;4.772;2022-11-30T11:14:20;21.92;;;8.90;;
55489;SDS011;44029;52.956;4.772;2022-11-30T11:16:48;21.23;;;10.73;;
55489;SDS011;44029;52.956;4.772;2022-11-30T11:19:24;28.50;;;9.43;;
55489;SDS011;44029;52.956;4.772;2022-11-30T11:21:58;18.27;;;9.35;;
55489;SDS011;44029;52.956;4.772;2022-11-30T11:24:39;20.20;;;11.70;;
55489;SDS011;44029;52.956;4.772;2022-11-30T11:27:04;23.27;;;11.98;;
55489;SDS011;44029;52.956;4.772;2022-11-30T11:29:30;25.92;;;13.25;;
55489;SDS011;44029;52.956;4.772;2022-11-30T11:34:44;20.35;;;10.57;;
55489;SDS011;44029;52.956;4.772;2022-11-30T11:37:15;26.38;;;13.02;;
55489;SDS011;44029;52.956;4.772;2022-11-30T11:39:41;26.65;;;12.98;;
55489;SDS011;44029;52.956;4.772;2022-11-30T11:42:12;26.30;;;14.13;;
55489;SDS011;44029;52.956;4.772;2022-11-30T11:44:42;27.40;;;14.73;;
55489;SDS011;44029;52.956;4.772;2022-11-30T11:47:13;25.60;;;14.02;;
55489;SDS011;44029;52.956;4.772;2022-11-30T11:49:48;31.60;;;14.23;;
55489;SDS011;44029;52.956;4.772;2022-11-30T11:52:15;31.88;;;17.25;;
55489;SDS011;44029;52.956;4.772;2022-11-30T11:57:16;32.22;;;16.00;;
55489;SDS011;44029;52.956;4.772;2022-11-30T11:59:54;32.33;;;17.23;;
55489;SDS011;44029;52.956;4.772;2022-11-30T12:05:17;37.97;;;17.67;;
55489;SDS011;44029;52.956;4.772;2022-11-30T12:12:54;38.25;;;18.17;;
55489;SDS011;44029;52.956;4.772;2022-11-30T12:15:22;37.13;;;17.25;;
55489;SDS011;44029;52.956;4.772;2022-11-30T12:18:00;38.60;;;17.70;;
55489;SDS011;44029;52.956;4.772;2022-11-30T12:20:45;34.95;;;17.23;;
55489;SDS011;44029;52.956;4.772;2022-11-30T12:23:25;38.60;;;17.50;;
55489;SDS011;44029;52.956;4.772;2022-11-30T12:26:04;44.58;;;17.95;;
55489;SDS011;44029;52.956;4.772;2022-11-30T12:31:30;41.88;;;18.27;;
55489;SDS011;44029;52.956;4.772;2022-11-30T12:42:20;39.47;;;18.60;;
55489;SDS011;44029;52.956;4.772;2022-11-30T12:45:12;39.40;;;17.75;;
55489;SDS011;44029;52.956;4.772;2022-11-30T12:47:46;38.28;;;17.88;;
55489;SDS011;44029;52.956;4.772;2022-11-30T12:50:33;39.58;;;17.30;;
55489;SDS011;44029;52.956;4.772;2022-11-30T12:55:50;28.85;;;14.73;;
55489;SDS011;44029;52.956;4.772;2022-11-30T12:58:24;31.60;;;15.65;;
55489;SDS011;44029;52.956;4.772;2022-11-30T13:06:20;34.28;;;16.35;;
55489;SDS011;44029;52.956;4.772;2022-11-30T13:11:44;37.00;;;17.08;;
55489;SDS011;44029;52.956;4.772;2022-11-30T13:14:17;32.80;;;15.85;;
55489;SDS011;44029;52.956;4.772;2022-11-30T13:16:46;34.92;;;17.48;;
55489;SDS011;44029;52.956;4.772;2022-11-30T13:19:22;37.13;;;17.85;;
55489;SDS011;44029;52.956;4.772;2022-11-30T13:21:55;34.63;;;16.65;;
55489;SDS011;44029;52.956;4.772;2022-11-30T13:24:28;33.55;;;16.20;;
55489;SDS011;44029;52.956;4.772;2022-11-30T13:32:32;31.17;;;15.50;;
55489;SDS011;44029;52.956;4.772;2022-11-30T13:38:04;29.75;;;14.90;;
55489;SDS011;44029;52.956;4.772;2022-11-30T13:40:39;35.60;;;15.10;;
55489;SDS011;44029;52.956;4.772;2022-11-30T13:43:12;32.90;;;15.75;;
55489;SDS011;44029;52.956;4.772;2022-11-30T13:45:40;31.75;;;16.05;;
55489;SDS011;44029;52.956;4.772;2022-11-30T13:51:04;32.47;;;16.17;;
55489;SDS011;44029;52.956;4.772;2022-11-30T13:53:31;33.00;;;17.52;;
55489;SDS011;44029;52.956;4.772;2022-11-30T13:56:00;34.45;;;17.05;;
55489;SDS011;44029;52.956;4.772;2022-11-30T13:58:29;32.72;;;16.05;;
55489;SDS011;44029;52.956;4.772;2022-11-30T14:00:59;40.35;;;17.77;;
55489;SDS011;44029;52.956;4.772;2022-11-30T14:03:28;34.50;;;15.88;;
55489;SDS011;44029;52.956;4.772;2022-11-30T14:05:59;35.17;;;17.40;;
55489;SDS011;44029;52.956;4.772;2022-11-30T14:08:43;30.42;;;15.68;;
55489;SDS011;44029;52.956;4.772;2022-11-30T14:13:42;41.42;;;18.20;;
55489;SDS011;44029;52.956;4.772;2022-11-30T14:19:05;36.53;;;15.73;;
55489;SDS011;44029;52.956;4.772;2022-11-30T14:21:31;34.20;;;16.20;;
55489;SDS011;44029;52.956;4.772;2022-11-30T14:29:27;30.73;;;15.13;;
55489;SDS011;44029;52.956;4.772;2022-11-30T14:32:10;38.38;;;15.77;;
55489;SDS011;44029;52.956;4.772;2022-11-30T14:34:46;33.10;;;15.35;;
55489;SDS011;44029;52.956;4.772;2022-11-30T14:37:18;33.45;;;15.02;;
55489;SDS011;44029;52.956;4.772;2022-11-30T14:39:47;31.77;;;13.77;;
55489;SDS011;44029;52.956;4.772;2022-11-30T14:42:24;35.38;;;15.18;;
55489;SDS011;44029;52.956;4.772;2022-11-30T14:44:51;30.63;;;15.43;;
55489;SDS011;44029;52.956;4.772;2022-11-30T14:47:30;32.92;;;14.85;;
55489;SDS011;44029;52.956;4.772;2022-11-30T14:49:58;34.08;;;15.25;;
55489;SDS011;44029;52.956;4.772;2022-11-30T14:58:25;34.97;;;15.98;;
55489;SDS011;44029;52.956;4.772;2022-11-30T15:00:57;29.92;;;14.23;;
55489;SDS011;44029;52.956;4.772;2022-11-30T15:03:28;53.97;;;24.92;;
55489;SDS011;44029;52.956;4.772;2022-11-30T15:05:58;29.45;;;14.93;;
55489;SDS011;44029;52.956;4.772;2022-11-30T15:08:36;38.25;;;16.00;;
55489;SDS011;44029;52.956;4.772;2022-11-30T15:11:07;31.08;;;15.20;;
55489;SDS011;44029;52.956;4.772;2022-11-30T15:13:41;29.98;;;15.40;;
55489;SDS011;44029;52.956;4.772;2022-11-30T15:16:20;32.28;;;15.30;;
55489;SDS011;44029;52.956;4.772;2022-11-30T15:18:51;28.02;;;13.30;;
55489;SDS011;44029;52.956;4.772;2022-11-30T15:21:22;33.28;;;14.55;;
55489;SDS011;44029;52.956;4.772;2022-11-30T15:23:50;36.38;;;15.77;;
55489;SDS011;44029;52.956;4.772;2022-11-30T15:26:24;36.42;;;15.75;;
55489;SDS011;44029;52.956;4.772;2022-11-30T15:29:13;30.77;;;13.85;;
55489;SDS011;44029;52.956;4.772;2022-11-30T15:31:44;33.28;;;15.38;;
55489;SDS011;44029;52.956;4.772;2022-11-30T15:36:48;30.00;;;14.23;;
55489;SDS011;44029;52.956;4.772;2022-11-30T15:39:18;33.03;;;14.63;;
55489;SDS011;44029;52.956;4.772;2022-11-30T15:41:46;34.55;;;15.50;;
55489;SDS011;44029;52.956;4.772;2022-11-30T15:44:25;35.00;;;15.27;;
55489;SDS011;44029;52.956;4.772;2022-11-30T15:47:01;30.98;;;13.82;;
55489;SDS011;44029;52.956;4.772;2022-11-30T15:49:28;32.38;;;13.98;;
55489;SDS011;44029;52.956;4.772;2022-11-30T15:52:12;35.40;;;14.93;;
55489;SDS011;44029;52.956;4.772;2022-11-30T15:54:44;37.72;;;15.02;;
55489;SDS011;44029;52.956;4.772;2022-11-30T15:57:16;34.75;;;14.68;;
55489;SDS011;44029;52.956;4.772;2022-11-30T15:59:42;36.72;;;16.27;;
55489;SDS011;44029;52.956;4.772;2022-11-30T16:07:38;36.10;;;15.93;;
55489;SDS011;44029;52.956;4.772;2022-11-30T16:10:13;31.52;;;14.05;;
55489;SDS011;44029;52.956;4.772;2022-11-30T16:12:42;32.70;;;14.43;;
55489;SDS011;44029;52.956;4.772;2022-11-30T16:15:16;33.72;;;14.48;;
55489;SDS011;44029;52.956;4.772;2022-11-30T16:17:47;23.90;;;11.63;;
55489;SDS011;44029;52.956;4.772;2022-11-30T16:20:14;30.88;;;14.32;;
55489;SDS011;44029;52.956;4.772;2022-11-30T16:22:40;30.98;;;15.05;;
55489;SDS011;44029;52.956;4.772;2022-11-30T16:25:10;35.17;;;16.13;;
55489;SDS011;44029;52.956;4.772;2022-11-30T16:27:40;49.70;;;22.75;;
55489;SDS011;44029;52.956;4.772;2022-11-30T16:30:07;37.72;;;15.95;;
55489;SDS011;44029;52.956;4.772;2022-11-30T16:32:33;32.25;;;15.30;;
55489;SDS011;44029;52.956;4.772;2022-11-30T16:34:59;37.58;;;16.58;;
55489;SDS011;44029;52.956;4.772;2022-11-30T16:37:25;30.73;;;13.90;;
55489;SDS011;44029;52.956;4.772;2022-11-30T16:39:51;35.08;;;15.77;;